Time;durP1;ratioP1;P1;durP2;ratioP2;P2;SDS_P1;SDS_P2;PMS_P1;PMS_P2;Temp;Humidity;BMP_temperature;BMP_pressure;BME280_temperature;BME280_humidity;BME280_pressure;Samples;Min_cycle;Max_cycle;Signal;HPM_P1;HPM_P2
2023/06/02 00:01:49;;;;;;;1.10;0.70;;;;;;;22.36;34.90;100995.72;4442773;28;20152;-60
2023/06/02 00:04:01;;;;;;;1.45;0.77;;;;;;;22.35;34.85;100989.13;4443621;28;20048;-60
2023/06/02 00:06:18;;;;;;;0.85;0.70;;;;;;;22.35;34.19;100991.16;4445068;28;20097;-60
2023/06/02 00:08:31;;;;;;;0.70;0.70;;;;;;;22.28;33.90;100976.59;4442149;28;20186;-60
2023/06/02 00:10:41;;;;;;;0.98;0.70;;;;;;;22.35;33.88;100997.75;4443254;28;20055;-60
2023/06/02 00:12:51;;;;;;;1.40;0.80;;;;;;;22.33;34.27;100993.56;4445919;28;20023;-60
2023/06/02 00:15:04;;;;;;;0.85;0.80;;;;;;;22.33;33.83;100991.53;4445732;28;20037;-60
2023/06/02 00:17:16;;;;;;;2.17;0.98;;;;;;;22.33;34.11;101000.16;4427332;28;20043;-59
2023/06/02 00:19:31;;;;;;;1.75;0.70;;;;;;;22.33;33.85;100999.31;4442077;28;21239;-59
2023/06/02 00:21:41;;;;;;;1.75;0.80;;;;;;;22.33;33.99;100987.81;4441923;28;20031;-59
2023/06/02 00:23:52;;;;;;;1.40;0.80;;;;;;;22.32;34.01;100983.28;4441575;28;20489;-60
2023/06/02 00:26:02;;;;;;;0.85;0.70;;;;;;;22.31;33.98;100990.25;4446195;28;20580;-60
2023/06/02 00:28:13;;;;;;;1.50;0.80;;;;;;;22.31;34.06;100990.25;4429885;28;20107;-59
2023/06/02 00:30:23;;;;;;;1.23;0.70;;;;;;;22.31;34.24;100987.38;4427663;28;20367;-60
2023/06/02 00:32:34;;;;;;;1.33;0.90;;;;;;;22.31;34.32;100990.25;4427360;28;20649;-60
2023/06/02 00:34:44;;;;;;;1.17;0.90;;;;;;;22.30;34.00;100991.41;4437056;28;20031;-60
2023/06/02 00:36:55;;;;;;;0.70;0.70;;;;;;;22.30;33.96;100991.41;4442883;28;20038;-60
2023/06/02 00:39:06;;;;;;;1.73;0.80;;;;;;;22.29;34.13;100987.72;4435246;28;20032;-59
2023/06/02 00:41:16;;;;;;;0.80;0.80;;;;;;;22.28;33.52;100979.47;4445427;28;20038;-59
2023/06/02 00:43:27;;;;;;;1.13;0.80;;;;;;;22.28;34.32;100982.34;4444334;28;20039;-59
2023/06/02 00:45:37;;;;;;;1.98;0.80;;;;;;;22.27;33.17;100977.78;4444391;28;20039;-60
2023/06/02 00:47:49;;;;;;;1.35;0.77;;;;;;;22.27;35.37;100984.38;4427713;28;20039;-59
2023/06/02 00:49:59;;;;;;;1.33;0.70;;;;;;;22.27;34.56;100984.38;4443519;28;20464;-59
2023/06/02 00:52:10;;;;;;;1.05;0.65;;;;;;;22.27;34.34;100992.16;4425862;28;20047;-60
2023/06/02 00:54:21;;;;;;;1.17;0.70;;;;;;;22.23;35.48;100982.63;4443861;28;20803;-59
2023/06/02 00:56:32;;;;;;;0.85;0.65;;;;;;;22.26;33.49;100994.22;4428626;28;20633;-60
2023/06/02 00:58:43;;;;;;;1.95;0.80;;;;;;;22.26;33.25;100981.88;4444125;28;20053;-60
2023/06/02 01:00:54;;;;;;;1.15;0.90;;;;;;;22.23;34.09;100991.25;4427039;28;20036;-60
2023/06/02 01:03:07;;;;;;;0.98;0.77;;;;;;;22.25;34.60;100991.72;4425161;28;21080;-60
2023/06/02 01:05:19;;;;;;;0.75;0.73;;;;;;;22.24;32.60;100985.13;4427148;28;20043;-60
2023/06/02 01:07:30;;;;;;;0.90;0.70;;;;;;;22.20;33.83;100990.78;4444401;28;20431;-60
2023/06/02 01:09:41;;;;;;;1.13;0.85;;;;;;;22.23;33.76;100994.13;4442144;28;20052;-60
2023/06/02 01:11:52;;;;;;;1.30;0.80;;;;;;;22.23;33.19;100988.38;4442705;28;20027;-60
2023/06/02 01:14:03;;;;;;;1.25;0.80;;;;;;;22.21;32.82;100992.44;4445565;28;20047;-60
2023/06/02 01:16:13;;;;;;;1.98;0.90;;;;;;;22.21;32.77;100998.19;4443120;28;20147;-60
2023/06/02 01:18:26;;;;;;;1.80;0.88;;;;;;;22.21;32.26;100991.63;4426326;28;20023;-60
2023/06/02 01:20:44;;;;;;;1.88;0.80;;;;;;;22.20;33.16;100992.81;4444281;28;20074;-59
2023/06/02 01:23:01;;;;;;;1.40;0.88;;;;;;;22.20;33.68;100989.94;4442236;28;20040;-60
2023/06/02 01:25:18;;;;;;;1.40;0.88;;;;;;;22.20;32.85;100989.94;4388486;28;20041;-60
2023/06/02 01:27:28;;;;;;;1.23;0.70;;;;;;;22.19;32.60;100989.13;4425375;28;20044;-60
2023/06/02 01:29:40;;;;;;;1.63;0.85;;;;;;;22.19;32.83;100989.13;4441922;28;20420;-60
2023/06/02 01:31:53;;;;;;;1.42;0.90;;;;;;;22.18;33.93;100987.41;4424912;28;20036;-60
2023/06/02 01:34:13;;;;;;;1.35;0.90;;;;;;;22.17;33.71;100985.75;4443081;28;20590;-60
2023/06/02 01:36:27;;;;;;;0.95;0.73;;;;;;;22.17;34.75;100984.91;4444528;28;20043;-59
2023/06/02 01:38:40;;;;;;;0.80;0.68;;;;;;;22.18;34.74;100986.59;4443484;28;20513;-59
2023/06/02 01:40:54;;;;;;;1.58;0.93;;;;;;;22.17;34.18;100984.91;4445150;28;20727;-60
2023/06/02 01:43:05;;;;;;;1.58;0.80;;;;;;;22.16;34.25;100981.22;4444927;28;20031;-60
2023/06/02 01:45:17;;;;;;;1.05;0.75;;;;;;;22.17;33.02;100984.91;4425880;28;20042;-60
2023/06/02 01:47:28;;;;;;;1.52;1.00;;;;;;;22.14;32.42;100977.88;4444293;28;20636;-60
2023/06/02 01:49:38;;;;;;;1.88;1.02;;;;;;;22.16;32.51;100978.34;4433936;28;20229;-59
2023/06/02 01:51:48;;;;;;;1.00;0.80;;;;;;;22.15;33.82;100975.84;4427378;28;20607;-60
2023/06/02 01:54:01;;;;;;;1.38;0.80;;;;;;;22.14;33.22;100977.88;4428862;28;20429;-60
2023/06/02 01:56:11;;;;;;;0.80;0.80;;;;;;;22.07;33.27;100963.28;4428511;28;20049;-60
2023/06/02 01:58:22;;;;;;;2.92;1.00;;;;;;;22.13;32.44;100984.84;4442074;28;20051;-60
2023/06/02 02:00:32;;;;;;;1.30;0.98;;;;;;;22.12;32.86;100986.03;4417634;28;20063;-60
2023/06/02 02:02:43;;;;;;;1.27;1.00;;;;;;;22.13;31.58;100981.13;4443898;28;20077;-59
2023/06/02 02:04:53;;;;;;;1.27;0.77;;;;;;;22.13;33.49;100984.84;4442570;28;26362;-60
2023/06/02 02:07:04;;;;;;;1.67;0.88;;;;;;;22.12;33.25;100991.78;4446061;28;20051;-59
2023/06/02 02:09:15;;;;;;;1.58;1.17;;;;;;;22.11;31.72;100981.50;4444954;28;20493;-60
2023/06/02 02:11:28;;;;;;;1.13;0.90;;;;;;;22.11;31.53;100981.50;4441759;28;20051;-59
2023/06/02 02:13:39;;;;;;;1.50;0.90;;;;;;;22.12;31.33;100982.31;4443213;28;20063;-60
2023/06/02 02:15:49;;;;;;;1.30;1.02;;;;;;;22.11;31.25;100987.25;4424913;28;20039;-59
2023/06/02 02:18:00;;;;;;;1.27;0.98;;;;;;;21.98;31.39;100959.75;4435895;28;20070;-59
2023/06/02 02:20:12;;;;;;;1.30;0.90;;;;;;;22.11;31.28;100984.38;4443130;28;20035;-60
2023/06/02 02:22:23;;;;;;;2.25;1.08;;;;;;;22.08;31.07;100982.22;4445129;28;20520;-60
2023/06/02 02:24:35;;;;;;;1.10;0.90;;;;;;;22.08;31.14;100976.47;4426766;28;20054;-59
2023/06/02 02:26:46;;;;;;;1.98;1.00;;;;;;;22.06;31.66;100972.28;4429584;28;20043;-60
2023/06/02 02:28:56;;;;;;;1.67;1.17;;;;;;;22.08;31.52;100975.63;4441295;28;20353;-60
2023/06/02 02:31:07;;;;;;;2.88;0.95;;;;;;;22.08;31.70;100982.22;4423586;28;20040;-60
2023/06/02 02:33:19;;;;;;;2.22;1.10;;;;;;;22.07;31.84;100983.41;4428635;28;20608;-60
2023/06/02 02:35:30;;;;;;;1.90;1.10;;;;;;;22.07;31.57;100977.66;4430959;28;20084;-60
2023/06/02 02:37:43;;;;;;;2.15;1.10;;;;;;;22.07;31.93;100986.28;4431171;28;20108;-60
2023/06/02 02:39:55;;;;;;;1.67;1.10;;;;;;;22.07;32.07;100980.53;4429561;28;20060;-60
2023/06/02 02:42:07;;;;;;;1.45;1.02;;;;;;;21.92;31.85;100960.41;4434996;28;20055;-59
2023/06/02 02:44:17;;;;;;;1.90;1.10;;;;;;;22.04;31.88;100987.03;4428750;28;20046;-60
2023/06/02 02:46:27;;;;;;;1.83;1.05;;;;;;;22.05;32.43;100982.97;4444249;28;20042;-60
2023/06/02 02:48:38;;;;;;;1.40;1.08;;;;;;;22.05;32.63;100985.84;4446498;28;20519;-60
2023/06/02 02:50:50;;;;;;;1.10;1.00;;;;;;;22.06;32.93;100981.75;4446544;28;20047;-60
2023/06/02 02:53:01;;;;;;;1.50;1.10;;;;;;;22.06;31.83;100984.63;4446124;28;20559;-60
2023/06/02 02:55:11;;;;;;;1.15;0.82;;;;;;;22.05;32.48;100985.84;4427654;28;20039;-60
2023/06/02 02:57:22;;;;;;;1.70;1.00;;;;;;;22.05;32.08;100987.88;4445897;28;20024;-60
2023/06/02 02:59:33;;;;;;;1.70;1.00;;;;;;;22.05;32.08;100987.88;4425458;28;20039;-60
2023/06/02 03:01:46;;;;;;;1.65;1.00;;;;;;;21.97;32.08;100969.59;4445614;28;20043;-60
2023/06/02 03:03:58;;;;;;;1.60;0.93;;;;;;;22.02;32.15;100983.69;4444548;28;20043;-60
2023/06/02 03:06:11;;;;;;;1.98;1.00;;;;;;;22.04;32.17;100984.16;4445394;28;20043;-60
2023/06/02 03:08:22;;;;;;;1.13;0.80;;;;;;;22.03;32.19;100984.53;4446517;28;20085;-60
2023/06/02 03:10:32;;;;;;;1.58;1.42;;;;;;;22.02;32.15;100995.19;4427584;28;20040;-60
2023/06/02 03:12:43;;;;;;;1.70;1.13;;;;;;;21.99;32.28;100978.66;4431293;28;20032;-63
2023/06/02 03:14:53;;;;;;;1.80;1.10;;;;;;;22.03;32.24;100988.25;4427993;28;20548;-61
2023/06/02 03:17:05;;;;;;;1.58;1.05;;;;;;;22.02;32.08;100986.56;4429685;28;20035;-63
2023/06/02 03:19:16;;;;;;;1.55;1.00;;;;;;;22.03;32.48;100994.00;4429363;28;20032;-61
2023/06/02 03:21:31;;;;;;;1.98;1.10;;;;;;;22.03;32.44;100996.03;4444955;28;20042;-62
2023/06/02 03:23:42;;;;;;;1.48;0.90;;;;;;;22.01;32.33;100996.41;4442114;28;20102;-60
2023/06/02 03:25:53;;;;;;;1.13;0.82;;;;;;;21.98;32.38;100991.38;4444509;28;20060;-61
2023/06/02 03:28:03;;;;;;;2.20;1.10;;;;;;;22.02;32.65;101003.81;4425031;28;20040;-60
2023/06/02 03:30:14;;;;;;;1.52;0.90;;;;;;;22.02;32.69;101009.56;4430548;28;20046;-61
2023/06/02 03:32:25;;;;;;;1.50;0.90;;;;;;;22.01;33.89;101001.28;4427589;28;20101;-60
2023/06/02 03:34:39;;;;;;;1.42;0.90;;;;;;;21.98;32.09;101000.00;4434733;28;20036;-61
2023/06/02 03:36:50;;;;;;;3.10;1.20;;;;;;;22.02;31.97;101008.75;4427754;28;20028;-60
2023/06/02 03:39:12;;;;;;;1.70;1.02;;;;;;;22.01;32.37;101013.63;4425773;28;20031;-62
2023/06/02 03:41:23;;;;;;;1.70;0.95;;;;;;;22.00;32.69;101011.97;4429540;28;20087;-64
2023/06/02 03:43:34;;;;;;;1.10;1.00;;;;;;;22.00;31.76;101011.97;4443953;28;20067;-60
2023/06/02 03:45:45;;;;;;;2.50;1.20;;;;;;;22.00;31.91;101009.09;4444181;28;20035;-60
2023/06/02 03:47:58;;;;;;;1.63;0.85;;;;;;;22.00;31.65;101014.84;4426548;28;20247;-63
2023/06/02 03:50:09;;;;;;;1.83;0.98;;;;;;;22.00;31.58;101014.84;4442126;28;20180;-59
2023/06/02 03:52:20;;;;;;;1.55;1.10;;;;;;;21.99;31.65;101009.47;4428018;28;20498;-63
2023/06/02 03:54:30;;;;;;;2.42;1.05;;;;;;;21.99;31.73;101012.34;4445347;28;20179;-60
2023/06/02 03:56:40;;;;;;;1.50;1.05;;;;;;;21.99;32.04;101018.09;4442802;28;20035;-60
2023/06/02 03:58:51;;;;;;;2.42;1.00;;;;;;;21.99;31.54;101013.16;4443505;28;20030;-62
2023/06/02 04:01:04;;;;;;;1.52;1.13;;;;;;;21.99;31.61;101012.34;4446975;28;20134;-60
2023/06/02 04:03:16;;;;;;;1.60;0.95;;;;;;;21.99;31.48;101020.97;4443788;28;20039;-60
2023/06/02 04:05:26;;;;;;;1.38;1.00;;;;;;;21.99;31.34;101029.59;4429682;28;20888;-59
2023/06/02 04:07:37;;;;;;;2.47;0.90;;;;;;;21.98;31.48;101025.88;4444258;28;20705;-60
2023/06/02 04:09:48;;;;;;;2.35;1.17;;;;;;;21.98;31.59;101025.88;4427062;28;20043;-60
2023/06/02 04:11:58;;;;;;;2.13;1.00;;;;;;;21.98;31.31;101045.16;4444822;28;20056;-59
2023/06/02 04:14:12;;;;;;;1.58;0.90;;;;;;;21.96;31.78;101030.34;4414413;28;20040;-59
2023/06/02 04:16:26;;;;;;;1.75;1.00;;;;;;;21.98;32.09;101027.91;4426032;28;20044;-59
2023/06/02 04:18:38;;;;;;;1.52;0.90;;;;;;;21.93;31.82;101023.25;4425852;28;20054;-59
2023/06/02 04:20:49;;;;;;;1.60;1.00;;;;;;;21.98;32.10;101036.53;4427374;28;20035;-59
2023/06/02 04:22:59;;;;;;;1.25;1.00;;;;;;;21.97;32.48;101034.88;4444691;28;20408;-59
2023/06/02 04:25:10;;;;;;;1.20;0.88;;;;;;;21.97;32.20;101032.84;4409578;28;20072;-60
2023/06/02 04:27:20;;;;;;;1.33;0.88;;;;;;;21.96;32.33;101036.91;4441127;28;20527;-61
2023/06/02 04:29:31;;;;;;;1.73;1.15;;;;;;;21.97;31.93;101037.75;4444782;28;20048;-59
2023/06/02 04:31:43;;;;;;;1.80;0.98;;;;;;;21.96;32.17;101038.94;4433360;28;20151;-59
2023/06/02 04:33:57;;;;;;;1.50;0.98;;;;;;;21.95;31.97;101031.50;4443983;28;20040;-60
2023/06/02 04:36:08;;;;;;;1.45;1.10;;;;;;;21.96;32.06;101030.34;4427465;28;20567;-60
2023/06/02 04:38:18;;;;;;;1.42;0.95;;;;;;;21.95;32.59;101032.34;4434191;28;20642;-59
2023/06/02 04:40:30;;;;;;;2.75;0.85;;;;;;;21.95;32.10;101037.25;4420213;28;20688;-59
2023/06/02 04:42:41;;;;;;;2.25;0.90;;;;;;;21.95;32.24;101038.09;4426255;28;21167;-59
2023/06/02 04:44:53;;;;;;;1.33;0.90;;;;;;;21.95;32.24;101043.84;4443230;28;20134;-60
2023/06/02 04:47:05;;;;;;;1.60;0.80;;;;;;;21.94;31.59;101039.31;4444095;28;20114;-59
2023/06/02 04:49:15;;;;;;;1.42;0.80;;;;;;;21.94;32.07;101047.09;4410531;28;20091;-59
2023/06/02 04:51:27;;;;;;;1.95;0.90;;;;;;;21.93;31.89;101042.53;4432970;28;20092;-59
2023/06/02 04:53:39;;;;;;;1.55;0.90;;;;;;;21.94;32.34;101039.31;4442588;28;20034;-59
2023/06/02 04:55:49;;;;;;;2.45;1.02;;;;;;;21.94;31.71;101044.22;4427093;28;20727;-59
2023/06/02 04:58:00;;;;;;;1.65;0.75;;;;;;;21.93;32.84;101042.53;4436836;28;20131;-59
2023/06/02 05:00:12;;;;;;;1.63;0.90;;;;;;;21.93;32.18;101036.78;4430570;28;20556;-59
2023/06/02 05:02:23;;;;;;;2.35;1.00;;;;;;;21.93;32.41;101045.41;4443394;28;20114;-59
2023/06/02 05:04:34;;;;;;;1.67;0.90;;;;;;;21.91;32.24;101042.09;4425821;28;20100;-60
2023/06/02 05:06:47;;;;;;;1.83;0.93;;;;;;;21.91;31.91;101034.28;4428205;28;20567;-59
2023/06/02 05:08:59;;;;;;;2.85;1.10;;;;;;;21.91;31.89;101042.09;4428933;28;21243;-60
2023/06/02 05:11:09;;;;;;;1.77;0.90;;;;;;;21.90;31.83;101041.25;4443046;28;20157;-59
2023/06/02 05:13:21;;;;;;;2.20;1.00;;;;;;;21.88;32.20;101037.88;4428941;28;20040;-59
2023/06/02 05:15:33;;;;;;;1.85;0.90;;;;;;;21.91;31.97;101039.22;4430423;28;20078;-59
2023/06/02 05:17:43;;;;;;;1.98;0.95;;;;;;;21.88;32.46;101037.06;4442381;28;20131;-59
2023/06/02 05:19:55;;;;;;;2.05;0.90;;;;;;;21.90;32.53;101041.25;4425988;28;20108;-59
2023/06/02 05:22:06;;;;;;;2.28;1.10;;;;;;;21.90;31.89;101037.53;4435001;28;20445;-60
2023/06/02 05:24:17;;;;;;;2.35;1.08;;;;;;;21.87;31.94;101033.34;4427862;28;20114;-59
2023/06/02 05:26:27;;;;;;;1.98;1.00;;;;;;;21.89;32.20;101042.44;4429224;28;20082;-59
2023/06/02 05:28:39;;;;;;;2.28;1.10;;;;;;;21.86;32.14;101037.44;4428576;28;20032;-59
2023/06/02 05:30:50;;;;;;;1.65;0.93;;;;;;;21.88;32.70;101040.75;4427182;28;20106;-59
2023/06/02 05:33:01;;;;;;;1.30;0.90;;;;;;;21.89;32.21;101036.69;4435907;28;20070;-59
2023/06/02 05:35:13;;;;;;;1.73;0.90;;;;;;;21.90;32.76;101043.25;4426554;28;20084;-59
2023/06/02 05:37:23;;;;;;;2.60;1.10;;;;;;;21.87;32.41;101044.84;4427405;28;20139;-59
2023/06/02 05:39:34;;;;;;;1.90;0.98;;;;;;;21.82;33.03;101024.97;4425327;28;20458;-59
2023/06/02 05:41:45;;;;;;;2.00;0.90;;;;;;;21.82;32.27;101030.72;4427526;28;20046;-60
2023/06/02 05:43:56;;;;;;;2.20;0.90;;;;;;;21.89;32.86;101035.84;4426340;28;20040;-58
2023/06/02 05:46:06;;;;;;;2.08;0.77;;;;;;;21.89;32.98;101041.59;4444973;28;20115;-59
2023/06/02 05:48:17;;;;;;;1.67;0.90;;;;;;;21.88;34.45;101052.25;4443533;28;20110;-59
2023/06/02 05:50:29;;;;;;;2.58;0.90;;;;;;;21.88;33.34;101037.06;4430955;28;20059;-59
2023/06/02 05:52:39;;;;;;;1.70;0.90;;;;;;;21.87;33.49;101044.84;4442362;28;20033;-59
2023/06/02 05:54:51;;;;;;;1.45;0.90;;;;;;;21.85;34.81;101041.50;4417987;28;20016;-60
2023/06/02 05:57:02;;;;;;;1.65;0.90;;;;;;;21.87;34.67;101047.72;4406267;28;20036;-59
2023/06/02 05:59:13;;;;;;;2.38;1.10;;;;;;;21.87;34.80;101049.75;4425861;28;20084;-59
2023/06/02 06:01:24;;;;;;;1.77;0.90;;;;;;;21.87;34.20;101044.00;4434851;28;20508;-59
2023/06/02 06:03:37;;;;;;;2.00;1.00;;;;;;;21.85;34.82;101040.69;4436775;28;20129;-59
2023/06/02 06:05:48;;;;;;;1.77;0.90;;;;;;;21.87;33.96;101044.00;4416879;28;20791;-60
2023/06/02 06:07:59;;;;;;;2.13;0.90;;;;;;;21.86;34.57;101050.97;4422746;28;20568;-60
2023/06/02 06:10:09;;;;;;;1.17;0.90;;;;;;;21.85;34.34;101046.44;4447077;28;20059;-60
2023/06/02 06:12:20;;;;;;;2.05;1.00;;;;;;;21.85;34.66;101058.75;4428646;28;20039;-59
2023/06/02 06:14:30;;;;;;;1.70;0.85;;;;;;;21.84;35.51;101057.06;4411979;28;20494;-60
2023/06/02 06:16:41;;;;;;;1.83;0.80;;;;;;;21.85;35.06;101058.75;4430967;28;20544;-59
2023/06/02 06:18:52;;;;;;;1.45;0.90;;;;;;;21.82;33.91;101050.84;4414627;28;20041;-60
2023/06/02 06:21:02;;;;;;;1.80;0.90;;;;;;;21.84;34.97;101057.06;4416949;28;20047;-60
2023/06/02 06:23:14;;;;;;;1.13;0.73;;;;;;;21.83;34.79;101061.16;4413202;28;20109;-59
2023/06/02 06:25:24;;;;;;;1.23;0.77;;;;;;;21.84;35.36;101057.06;4427601;28;21741;-59
2023/06/02 06:27:36;;;;;;;2.10;0.80;;;;;;;21.82;34.98;101059.47;4428621;28;20027;-60
2023/06/02 06:29:47;;;;;;;1.88;0.85;;;;;;;21.82;33.27;101055.75;4425916;28;20086;-59
2023/06/02 06:31:57;;;;;;;1.33;0.88;;;;;;;21.82;34.45;101059.47;4428470;28;20051;-59
2023/06/02 06:34:09;;;;;;;2.15;1.00;;;;;;;21.81;33.92;101068.44;4428637;28;20032;-60
2023/06/02 06:36:20;;;;;;;2.45;1.00;;;;;;;21.82;34.18;101064.38;4446649;28;20482;-60
2023/06/02 06:38:30;;;;;;;1.42;0.90;;;;;;;21.81;33.58;101066.44;4414791;28;20449;-60
2023/06/02 06:40:42;;;;;;;1.10;0.93;;;;;;;21.81;33.28;101071.31;4412674;28;20036;-59
2023/06/02 06:42:53;;;;;;;1.20;0.80;;;;;;;21.80;34.09;101072.53;4446968;28;20033;-58
2023/06/02 06:45:10;;;;;;;1.30;0.88;;;;;;;21.81;33.33;101074.19;4442430;28;20039;-59
2023/06/02 06:47:20;;;;;;;1.92;0.90;;;;;;;21.80;34.39;101075.41;4427998;28;20518;-59
2023/06/02 06:49:31;;;;;;;1.35;0.90;;;;;;;21.79;33.95;101070.84;4420105;28;20058;-59
2023/06/02 06:51:42;;;;;;;1.02;0.80;;;;;;;21.79;33.14;101065.94;4447078;28;20476;-59
2023/06/02 06:53:54;;;;;;;1.67;0.80;;;;;;;21.79;32.74;101068.81;4421456;28;20115;-59
2023/06/02 06:56:05;;;;;;;4.22;1.00;;;;;;;21.79;32.72;101070.84;4447914;28;20033;-59
2023/06/02 06:58:15;;;;;;;1.15;0.80;;;;;;;21.77;32.57;101074.09;4445386;28;20039;-60
2023/06/02 07:00:26;;;;;;;2.33;1.10;;;;;;;21.78;33.04;101072.91;4446977;28;20046;-60
2023/06/02 07:02:36;;;;;;;1.25;0.90;;;;;;;21.77;32.60;101079.84;4446342;28;20103;-60
2023/06/02 07:04:47;;;;;;;1.30;0.68;;;;;;;21.79;33.84;101079.47;4446574;28;20487;-60
2023/06/02 07:06:57;;;;;;;0.60;0.60;;;;;;;21.80;38.24;101084.84;4444240;28;20047;-60
2023/06/02 07:09:08;;;;;;;2.17;1.00;;;;;;;21.78;37.18;101081.53;4443711;28;20574;-60
2023/06/02 07:11:19;;;;;;;1.20;0.80;;;;;;;21.78;37.56;101081.53;4446225;28;20155;-60
2023/06/02 07:13:29;;;;;;;1.67;0.60;;;;;;;21.79;39.44;101086.06;4445317;28;20039;-60
2023/06/02 07:15:40;;;;;;;1.35;0.82;;;;;;;21.76;37.96;101074.44;4431589;28;20119;-60
2023/06/02 07:17:50;;;;;;;1.27;0.82;;;;;;;21.78;37.56;101081.53;4443231;28;20036;-60
2023/06/02 07:20:01;;;;;;;0.95;0.70;;;;;;;21.73;37.71;101072.28;4446356;28;20050;-60
2023/06/02 07:22:11;;;;;;;1.73;1.13;;;;;;;21.78;38.09;101081.53;4445589;28;20028;-59
2023/06/02 07:24:21;;;;;;;1.95;0.80;;;;;;;21.77;36.59;101076.16;4448610;28;20516;-60
2023/06/02 07:26:32;;;;;;;1.15;0.70;;;;;;;21.78;36.35;101086.44;4445251;28;20039;-60
2023/06/02 07:28:43;;;;;;;1.27;0.80;;;;;;;21.78;37.22;101083.56;4441010;28;21074;-60
2023/06/02 07:30:53;;;;;;;1.48;0.82;;;;;;;21.78;36.88;101087.28;4444967;28;20031;-60
2023/06/02 07:33:04;;;;;;;1.92;0.90;;;;;;;21.77;36.71;101079.84;4445299;28;20896;-61
2023/06/02 07:35:15;;;;;;;1.35;1.00;;;;;;;21.76;36.85;101078.16;4444922;28;20111;-61
2023/06/02 07:37:26;;;;;;;1.25;0.85;;;;;;;21.77;37.10;101079.84;4445647;28;20031;-61
2023/06/02 07:39:36;;;;;;;1.60;1.05;;;;;;;21.76;36.88;101083.91;4445300;28;20032;-61
2023/06/02 07:41:47;;;;;;;1.58;0.90;;;;;;;21.76;36.86;101083.91;4445270;28;20035;-62
2023/06/02 07:43:57;;;;;;;1.38;1.00;;;;;;;21.77;35.96;101084.75;4443866;28;20039;-61
2023/06/02 07:46:08;;;;;;;1.52;1.00;;;;;;;21.77;35.88;101084.75;4444858;28;20351;-61
2023/06/02 07:48:18;;;;;;;1.67;1.00;;;;;;;21.77;36.71;101079.84;4446534;28;20055;-61
2023/06/02 07:50:29;;;;;;;2.17;1.00;;;;;;;21.77;35.54;101079.84;4446511;28;20054;-60
2023/06/02 07:52:39;;;;;;;1.70;0.90;;;;;;;21.71;35.40;101077.53;4432573;28;20034;-60
2023/06/02 07:54:50;;;;;;;2.08;0.90;;;;;;;21.77;36.82;101082.72;4442575;28;20059;-60
2023/06/02 07:57:00;;;;;;;2.45;1.00;;;;;;;21.77;37.33;101090.50;4445175;28;20035;-61
2023/06/02 07:59:12;;;;;;;2.80;1.30;;;;;;;21.76;36.43;101083.91;4442343;28;20038;-60
2023/06/02 08:01:22;;;;;;;1.50;0.85;;;;;;;21.70;36.78;101079.59;4445397;28;20031;-60
2023/06/02 08:03:33;;;;;;;2.00;1.02;;;;;;;21.76;37.02;101083.91;4446102;28;20036;-60
2023/06/02 08:05:44;;;;;;;1.25;0.88;;;;;;;21.75;36.86;101082.25;4427808;28;20524;-60
2023/06/02 08:07:55;;;;;;;2.80;1.30;;;;;;;21.75;37.42;101082.25;4441200;28;20518;-60
2023/06/02 08:10:06;;;;;;;2.30;1.20;;;;;;;21.77;36.26;101085.56;4445752;28;20473;-61
2023/06/02 08:12:16;;;;;;;2.25;1.15;;;;;;;21.73;35.28;101084.63;4445832;28;20570;-61
2023/06/02 08:14:27;;;;;;;2.13;0.90;;;;;;;21.78;35.48;101089.31;4446550;28;20121;-60
2023/06/02 08:16:37;;;;;;;1.40;0.98;;;;;;;21.73;34.83;101075.16;4436195;28;20028;-59
2023/06/02 08:18:48;;;;;;;2.30;0.90;;;;;;;21.73;36.32;101093.22;4435307;28;20133;-59
2023/06/02 08:20:58;;;;;;;2.97;1.02;;;;;;;21.80;37.96;101099.22;4435563;28;20051;-58
2023/06/02 08:23:09;;;;;;;2.65;1.20;;;;;;;21.76;38.81;101089.66;4446898;28;20059;-59
2023/06/02 08:25:19;;;;;;;1.58;0.90;;;;;;;21.81;38.02;101098.03;4420930;28;20080;-58
2023/06/02 08:27:30;;;;;;;2.83;0.95;;;;;;;21.82;39.67;101099.69;4447055;28;20135;-59
2023/06/02 08:29:42;;;;;;;1.30;1.00;;;;;;;21.82;37.48;101099.69;4444003;28;20099;-57
2023/06/02 08:31:52;;;;;;;1.77;1.10;;;;;;;21.83;36.21;101095.66;4426535;28;20185;-58
2023/06/02 08:34:04;;;;;;;1.52;0.90;;;;;;;21.84;35.72;101096.47;4442761;28;20035;-59
2023/06/02 08:36:17;;;;;;;1.77;1.02;;;;;;;21.84;35.67;101100.19;4446658;28;20081;-59
2023/06/02 08:38:29;;;;;;;1.70;1.05;;;;;;;21.83;35.62;101100.53;4447768;28;20039;-59
2023/06/02 08:40:40;;;;;;;2.10;1.00;;;;;;;21.84;35.35;101091.56;4417267;28;20035;-60
2023/06/02 08:42:51;;;;;;;1.38;0.90;;;;;;;21.86;34.93;101097.78;4444329;28;20461;-59
2023/06/02 08:45:04;;;;;;;1.52;0.90;;;;;;;21.83;35.28;101095.66;4441881;28;20043;-60
2023/06/02 08:47:18;;;;;;;1.73;1.00;;;;;;;21.89;39.55;101099.09;4441683;28;20031;-59
2023/06/02 08:49:29;;;;;;;1.10;0.90;;;;;;;21.88;36.58;101103.97;4442156;28;20678;-61
2023/06/02 08:51:42;;;;;;;2.47;1.13;;;;;;;21.89;36.81;101105.69;4427180;28;20996;-58
2023/06/02 08:53:54;;;;;;;1.98;1.05;;;;;;;21.89;35.93;101097.06;4426426;28;20036;-60
2023/06/02 08:56:04;;;;;;;1.38;0.90;;;;;;;21.91;37.02;101097.50;4443941;28;20031;-61
2023/06/02 08:58:15;;;;;;;1.20;0.90;;;;;;;21.92;36.10;101098.34;4442662;28;20031;-59
2023/06/02 09:00:26;;;;;;;0.90;0.80;;;;;;;21.95;36.46;101097.63;4443527;28;20491;-64
2023/06/02 09:02:36;;;;;;;1.25;0.77;;;;;;;21.97;38.16;101101.81;4444513;28;20334;-59
2023/06/02 09:04:46;;;;;;;1.67;1.00;;;;;;;21.96;36.88;101087.81;4442296;28;20188;-59
2023/06/02 09:07:12;;;;;;;1.30;0.82;;;;;;;21.97;38.34;101089.47;4435214;28;20110;-57
2023/06/02 09:09:38;;;;;;;2.35;1.30;;;;;;;21.99;36.93;101093.66;4442146;28;20582;-59
2023/06/02 09:11:59;;;;;;;2.03;1.02;;;;;;;21.99;37.33;101087.91;4443567;28;20035;-59
2023/06/02 09:14:22;;;;;;;1.88;1.02;;;;;;;21.99;36.60;101087.91;4444136;28;20046;-58
2023/06/02 09:16:38;;;;;;;1.15;0.80;;;;;;;21.95;36.96;101069.72;4443763;28;20266;-58
2023/06/02 09:18:58;;;;;;;2.08;1.00;;;;;;;21.98;37.52;101085.38;4442956;28;20039;-58
2023/06/02 09:21:23;;;;;;;2.28;1.30;;;;;;;22.00;37.14;101103.97;4443808;28;20039;-58
2023/06/02 09:23:42;;;;;;;2.30;1.00;;;;;;;22.00;36.58;101091.63;4418470;28;20151;-58
2023/06/02 09:25:53;;;;;;;2.03;1.00;;;;;;;22.00;36.04;101095.34;4443908;28;20027;-58
2023/06/02 09:28:03;;;;;;;2.70;1.10;;;;;;;21.99;35.42;101099.41;4442754;28;20111;-59
2023/06/02 09:30:14;;;;;;;2.35;1.10;;;;;;;22.02;35.14;101100.72;4444269;28;20173;-59
2023/06/02 09:32:24;;;;;;;1.38;0.95;;;;;;;22.02;35.58;101095.78;4445469;28;20083;-58
2023/06/02 09:34:36;;;;;;;1.75;1.00;;;;;;;22.02;35.50;101097.84;4443851;28;20036;-58
2023/06/02 09:36:48;;;;;;;1.83;1.00;;;;;;;22.02;35.63;101097.84;4433004;28;20047;-58
2023/06/02 09:38:59;;;;;;;1.80;1.10;;;;;;;22.03;35.10;101099.50;4427355;28;20090;-58
2023/06/02 09:41:15;;;;;;;2.65;1.08;;;;;;;22.03;35.67;101099.50;4426108;28;20169;-58
2023/06/02 09:43:30;;;;;;;1.10;0.98;;;;;;;22.04;35.86;101095.44;4440895;28;20122;-58
2023/06/02 09:45:46;;;;;;;1.63;0.90;;;;;;;22.03;35.80;101090.88;4442606;28;20039;-59
2023/06/02 09:47:58;;;;;;;1.35;1.20;;;;;;;22.04;36.21;101093.38;4444258;28;20034;-58
2023/06/02 09:50:10;;;;;;;1.42;1.00;;;;;;;22.04;36.86;101096.25;4445553;28;20837;-59
2023/06/02 09:52:21;;;;;;;1.65;0.80;;;;;;;22.04;37.12;101093.38;4431013;28;20163;-59
2023/06/02 09:54:32;;;;;;;1.90;1.00;;;;;;;22.05;37.97;101103.72;4444692;28;20043;-58
2023/06/02 09:56:43;;;;;;;1.45;1.00;;;;;;;22.01;36.63;101097.00;4444352;28;20063;-58
2023/06/02 09:58:54;;;;;;;1.63;1.10;;;;;;;22.04;36.49;101106.94;4424544;28;20523;-59
2023/06/02 10:01:05;;;;;;;1.38;0.93;;;;;;;22.05;36.70;101092.22;4442250;28;20560;-59
2023/06/02 10:03:16;;;;;;;2.00;1.08;;;;;;;22.05;36.73;101103.72;4440891;28;20091;-58
2023/06/02 10:05:28;;;;;;;2.60;1.02;;;;;;;22.05;36.19;101103.72;4442882;28;20407;-58
2023/06/02 10:07:47;;;;;;;1.83;1.17;;;;;;;22.07;36.78;101103.34;4444118;28;20488;-58
2023/06/02 10:10:09;;;;;;;1.70;1.02;;;;;;;22.04;36.68;101093.38;4443910;28;20048;-59
2023/06/02 10:12:25;;;;;;;1.85;1.20;;;;;;;22.07;36.94;101101.28;4443367;28;20100;-58